Airport View

Enter AWOS ICAO identifier for current METAR.

ex. KFNL

KADG 212253Z AUTO 20007KT 10SM CLR 25/20 A3011 RMK AO2 SLP193 T02500200

21 Sep 2019 23:52

Frequency: 118.375

Phone: 517-265-9089

Other Area AWOS: KUSE - KTOL - KJYM - KTTF

TAF KTOL 211720Z 2118/2218 23010KT P6SM SCT050 SCT200 TEMPO 2119/2122 VRB20G30KT -TSRA SCT030 OVC050CB FM221400 23015G22KT P6SM SCT050 BKN170